Airport ID:K2O1
Update Time (UTC):17/09/2021 15:54
Wind Speed (Knots):0
Wind Direction (Magnetic):150
Temperature (°C):10
Dew Point (°C):4
Humidity (%):64
Altimeter (inHg):30.07
Density Altitude (Feet):
Visibility:10+
Clouds (Hundreds of feet):***
Present Weather:
METAR:METAR K2O1 171550Z AUTO 00000KT 10SM 10/04 A3007 RMK A01

The data displayed is for advisory purposes only and is not to be used for flight planning or operations.